sensor_id;sensor_type;location;lat;lon;timestamp;temperature;humidity
69261;DHT22;56378;52.404;20.816;2023-02-23T00:00:11;-1.80;69.70
69261;DHT22;56378;52.404;20.816;2023-02-23T00:02:47;-1.90;69.80
69261;DHT22;56378;52.404;20.816;2023-02-23T00:05:13;-1.80;70.30
69261;DHT22;56378;52.404;20.816;2023-02-23T00:07:43;-1.90;70.40
69261;DHT22;56378;52.404;20.816;2023-02-23T00:10:11;-1.90;69.90
69261;DHT22;56378;52.404;20.816;2023-02-23T00:12:38;-1.90;69.50
69261;DHT22;56378;52.404;20.816;2023-02-23T00:15:04;-1.90;69.70
69261;DHT22;56378;52.404;20.816;2023-02-23T00:17:32;-1.90;69.50
69261;DHT22;56378;52.404;20.816;2023-02-23T00:19:58;-1.90;69.20
69261;DHT22;56378;52.404;20.816;2023-02-23T00:22:27;-1.90;69.00
69261;DHT22;56378;52.404;20.816;2023-02-23T00:24:52;-1.90;68.50
69261;DHT22;56378;52.404;20.816;2023-02-23T00:27:18;-2.00;68.70
69261;DHT22;56378;52.404;20.816;2023-02-23T00:29:47;-2.00;68.80
69261;DHT22;56378;52.404;20.816;2023-02-23T00:32:14;-2.10;69.30
69261;DHT22;56378;52.404;20.816;2023-02-23T00:34:46;-2.10;69.40
69261;DHT22;56378;52.404;20.816;2023-02-23T00:37:17;-2.10;69.70
69261;DHT22;56378;52.404;20.816;2023-02-23T00:39:42;-2.20;69.70
69261;DHT22;56378;52.404;20.816;2023-02-23T00:42:09;-2.20;70.00
69261;DHT22;56378;52.404;20.816;2023-02-23T00:44:35;-2.30;69.90
69261;DHT22;56378;52.404;20.816;2023-02-23T00:47:05;-2.30;70.10
69261;DHT22;56378;52.404;20.816;2023-02-23T00:49:32;-2.30;70.30
69261;DHT22;56378;52.404;20.816;2023-02-23T00:51:58;-2.40;70.10
69261;DHT22;56378;52.404;20.816;2023-02-23T00:54:24;-2.50;69.90
69261;DHT22;56378;52.404;20.816;2023-02-23T00:56:50;-2.50;69.70
69261;DHT22;56378;52.404;20.816;2023-02-23T00:59:16;-2.50;69.50
69261;DHT22;56378;52.404;20.816;2023-02-23T01:01:43;-2.60;69.50
69261;DHT22;56378;52.404;20.816;2023-02-23T01:04:11;-2.60;69.20
69261;DHT22;56378;52.404;20.816;2023-02-23T01:06:38;-2.60;69.40
69261;DHT22;56378;52.404;20.816;2023-02-23T01:09:10;-2.70;69.80
69261;DHT22;56378;52.404;20.816;2023-02-23T01:11:37;-2.70;69.90
69261;DHT22;56378;52.404;20.816;2023-02-23T01:14:06;-2.80;70.20
69261;DHT22;56378;52.404;20.816;2023-02-23T01:16:33;-2.80;70.30
69261;DHT22;56378;52.404;20.816;2023-02-23T01:19:02;-2.90;70.60
69261;DHT22;56378;52.404;20.816;2023-02-23T01:21:33;-2.90;70.90
69261;DHT22;56378;52.404;20.816;2023-02-23T01:24:00;-3.00;71.10
69261;DHT22;56378;52.404;20.816;2023-02-23T01:26:37;-3.00;71.40
69261;DHT22;56378;52.404;20.816;2023-02-23T01:29:12;-3.00;71.80
69261;DHT22;56378;52.404;20.816;2023-02-23T01:31:40;-3.10;71.80
69261;DHT22;56378;52.404;20.816;2023-02-23T01:34:08;-3.10;72.10
69261;DHT22;56378;52.404;20.816;2023-02-23T01:36:36;-3.10;72.60
69261;DHT22;56378;52.404;20.816;2023-02-23T01:39:05;-3.10;73.00
69261;DHT22;56378;52.404;20.816;2023-02-23T01:41:33;-3.20;73.40
69261;DHT22;56378;52.404;20.816;2023-02-23T01:46:39;-3.20;74.40
69261;DHT22;56378;52.404;20.816;2023-02-23T01:49:15;-3.20;74.20
69261;DHT22;56378;52.404;20.816;2023-02-23T01:51:51;-3.20;74.10
69261;DHT22;56378;52.404;20.816;2023-02-23T01:54:21;-3.20;74.70
69261;DHT22;56378;52.404;20.816;2023-02-23T01:56:52;-3.20;74.60
69261;DHT22;56378;52.404;20.816;2023-02-23T01:59:32;-3.20;74.90
69261;DHT22;56378;52.404;20.816;2023-02-23T02:01:58;-3.20;75.10
69261;DHT22;56378;52.404;20.816;2023-02-23T02:04:24;-3.20;75.70
69261;DHT22;56378;52.404;20.816;2023-02-23T02:06:52;-3.20;76.10
69261;DHT22;56378;52.404;20.816;2023-02-23T02:09:21;-3.20;76.20
69261;DHT22;56378;52.404;20.816;2023-02-23T02:11:50;-3.30;76.40
69261;DHT22;56378;52.404;20.816;2023-02-23T02:14:26;-3.30;76.90
69261;DHT22;56378;52.404;20.816;2023-02-23T02:23:03;-3.30;76.90
69261;DHT22;56378;52.404;20.816;2023-02-23T02:39:14;-3.50;77.60
69261;DHT22;56378;52.404;20.816;2023-02-23T02:42:00;-3.60;77.70
69261;DHT22;56378;52.404;20.816;2023-02-23T02:47:09;-3.70;78.80
69261;DHT22;56378;52.404;20.816;2023-02-23T02:55:08;-3.80;79.70
69261;DHT22;56378;52.404;20.816;2023-02-23T02:57:36;-3.80;79.90
69261;DHT22;56378;52.404;20.816;2023-02-23T03:00:03;-3.80;80.10
69261;DHT22;56378;52.404;20.816;2023-02-23T03:02:48;-3.90;80.30
69261;DHT22;56378;52.404;20.816;2023-02-23T03:05:42;-4.00;80.70
69261;DHT22;56378;52.404;20.816;2023-02-23T03:11:37;-4.00;81.50
69261;DHT22;56378;52.404;20.816;2023-02-23T03:14:54;-4.10;82.00
69261;DHT22;56378;52.404;20.816;2023-02-23T03:17:47;-4.10;82.20
69261;DHT22;56378;52.404;20.816;2023-02-23T03:26:35;-4.10;83.50
69261;DHT22;56378;52.404;20.816;2023-02-23T03:29:31;-4.10;83.20
69261;DHT22;56378;52.404;20.816;2023-02-23T03:32:40;-4.10;83.50
69261;DHT22;56378;52.404;20.816;2023-02-23T03:36:01;-4.00;83.70
69261;DHT22;56378;52.404;20.816;2023-02-23T03:38:54;-4.00;84.00
69261;DHT22;56378;52.404;20.816;2023-02-23T03:41:40;-4.00;84.40
69261;DHT22;56378;52.404;20.816;2023-02-23T03:44:29;-3.90;84.70
69261;DHT22;56378;52.404;20.816;2023-02-23T03:47:16;-3.90;85.10
69261;DHT22;56378;52.404;20.816;2023-02-23T03:50:04;-3.90;85.50
69261;DHT22;56378;52.404;20.816;2023-02-23T03:52:55;-3.80;85.80
69261;DHT22;56378;52.404;20.816;2023-02-23T03:55:43;-3.80;86.00
69261;DHT22;56378;52.404;20.816;2023-02-23T03:58:45;-3.80;85.80
69261;DHT22;56378;52.404;20.816;2023-02-23T04:01:32;-3.80;86.10
69261;DHT22;56378;52.404;20.816;2023-02-23T04:04:17;-3.90;85.90
69261;DHT22;56378;52.404;20.816;2023-02-23T04:07:04;-3.90;85.50
69261;DHT22;56378;52.404;20.816;2023-02-23T04:09:50;-3.90;85.50
69261;DHT22;56378;52.404;20.816;2023-02-23T04:12:59;-4.00;85.50
69261;DHT22;56378;52.404;20.816;2023-02-23T04:18:26;-4.00;85.70
69261;DHT22;56378;52.404;20.816;2023-02-23T04:20:54;-4.00;85.70
69261;DHT22;56378;52.404;20.816;2023-02-23T04:23:20;-4.00;85.60
69261;DHT22;56378;52.404;20.816;2023-02-23T04:25:48;-3.90;85.50
69261;DHT22;56378;52.404;20.816;2023-02-23T04:28:14;-3.90;85.60
69261;DHT22;56378;52.404;20.816;2023-02-23T04:30:40;-3.90;85.90
69261;DHT22;56378;52.404;20.816;2023-02-23T04:33:06;-3.90;86.10
69261;DHT22;56378;52.404;20.816;2023-02-23T04:35:32;-3.90;86.30
69261;DHT22;56378;52.404;20.816;2023-02-23T04:37:58;-3.90;86.50
69261;DHT22;56378;52.404;20.816;2023-02-23T04:40:24;-3.90;86.90
69261;DHT22;56378;52.404;20.816;2023-02-23T04:42:50;-3.80;86.90
69261;DHT22;56378;52.404;20.816;2023-02-23T04:45:17;-3.80;87.10
69261;DHT22;56378;52.404;20.816;2023-02-23T04:47:43;-3.70;87.10
69261;DHT22;56378;52.404;20.816;2023-02-23T04:50:10;-3.70;87.40
69261;DHT22;56378;52.404;20.816;2023-02-23T04:52:36;-3.70;87.50
69261;DHT22;56378;52.404;20.816;2023-02-23T04:55:04;-3.60;87.40
69261;DHT22;56378;52.404;20.816;2023-02-23T04:57:31;-3.60;87.40
69261;DHT22;56378;52.404;20.816;2023-02-23T04:59:57;-3.50;87.20
69261;DHT22;56378;52.404;20.816;2023-02-23T05:02:23;-3.50;87.10
69261;DHT22;56378;52.404;20.816;2023-02-23T05:04:49;-3.40;87.20
69261;DHT22;56378;52.404;20.816;2023-02-23T05:07:15;-3.40;87.30
69261;DHT22;56378;52.404;20.816;2023-02-23T05:09:41;-3.30;87.40
69261;DHT22;56378;52.404;20.816;2023-02-23T05:12:07;-3.30;87.50
69261;DHT22;56378;52.404;20.816;2023-02-23T05:14:32;-3.20;87.30
69261;DHT22;56378;52.404;20.816;2023-02-23T05:16:58;-3.20;87.50
69261;DHT22;56378;52.404;20.816;2023-02-23T05:19:24;-3.10;87.40
69261;DHT22;56378;52.404;20.816;2023-02-23T05:21:50;-3.10;87.30
69261;DHT22;56378;52.404;20.816;2023-02-23T05:24:16;-3.10;87.50
69261;DHT22;56378;52.404;20.816;2023-02-23T05:26:42;-3.00;87.70
69261;DHT22;56378;52.404;20.816;2023-02-23T05:29:09;-3.00;87.80
69261;DHT22;56378;52.404;20.816;2023-02-23T05:31:35;-3.00;88.00
69261;DHT22;56378;52.404;20.816;2023-02-23T05:34:01;-3.00;88.00
69261;DHT22;56378;52.404;20.816;2023-02-23T05:36:27;-2.90;88.40
69261;DHT22;56378;52.404;20.816;2023-02-23T05:38:53;-2.90;88.70
69261;DHT22;56378;52.404;20.816;2023-02-23T05:41:21;-2.90;88.50
69261;DHT22;56378;52.404;20.816;2023-02-23T05:43:48;-2.90;88.60
69261;DHT22;56378;52.404;20.816;2023-02-23T05:46:19;-2.90;88.70
69261;DHT22;56378;52.404;20.816;2023-02-23T05:48:46;-2.90;88.90
69261;DHT22;56378;52.404;20.816;2023-02-23T05:51:14;-2.90;89.00
69261;DHT22;56378;52.404;20.816;2023-02-23T05:53:40;-2.80;88.90
69261;DHT22;56378;52.404;20.816;2023-02-23T05:56:07;-2.80;88.90
69261;DHT22;56378;52.404;20.816;2023-02-23T05:58:33;-2.80;89.20
69261;DHT22;56378;52.404;20.816;2023-02-23T06:01:00;-2.80;89.20
69261;DHT22;56378;52.404;20.816;2023-02-23T06:03:25;-2.70;89.30
69261;DHT22;56378;52.404;20.816;2023-02-23T06:05:53;-2.70;89.50
69261;DHT22;56378;52.404;20.816;2023-02-23T06:08:20;-2.70;89.60
69261;DHT22;56378;52.404;20.816;2023-02-23T06:10:46;-2.60;89.80
69261;DHT22;56378;52.404;20.816;2023-02-23T06:13:12;-2.60;89.70
69261;DHT22;56378;52.404;20.816;2023-02-23T06:15:38;-2.60;89.70
69261;DHT22;56378;52.404;20.816;2023-02-23T06:18:05;-2.50;89.80
69261;DHT22;56378;52.404;20.816;2023-02-23T06:20:31;-2.50;89.70
69261;DHT22;56378;52.404;20.816;2023-02-23T06:22:57;-2.50;89.60
69261;DHT22;56378;52.404;20.816;2023-02-23T06:25:23;-2.40;89.40
69261;DHT22;56378;52.404;20.816;2023-02-23T06:27:49;-2.40;89.40
69261;DHT22;56378;52.404;20.816;2023-02-23T06:30:14;-2.30;89.40
69261;DHT22;56378;52.404;20.816;2023-02-23T06:32:40;-2.30;89.40
69261;DHT22;56378;52.404;20.816;2023-02-23T06:35:07;-2.20;89.30
69261;DHT22;56378;52.404;20.816;2023-02-23T06:37:34;-2.10;88.90
69261;DHT22;56378;52.404;20.816;2023-02-23T06:40:01;-2.10;88.70
69261;DHT22;56378;52.404;20.816;2023-02-23T06:42:27;-2.00;88.70
69261;DHT22;56378;52.404;20.816;2023-02-23T06:44:52;-2.00;88.40
69261;DHT22;56378;52.404;20.816;2023-02-23T06:47:18;-1.90;88.20
69261;DHT22;56378;52.404;20.816;2023-02-23T06:49:44;-1.80;87.90
69261;DHT22;56378;52.404;20.816;2023-02-23T06:52:10;-1.80;87.80
69261;DHT22;56378;52.404;20.816;2023-02-23T06:54:41;-1.70;87.60
69261;DHT22;56378;52.404;20.816;2023-02-23T06:57:09;-1.70;87.40
69261;DHT22;56378;52.404;20.816;2023-02-23T06:59:35;-1.50;86.90
69261;DHT22;56378;52.404;20.816;2023-02-23T07:02:02;-1.40;86.30
69261;DHT22;56378;52.404;20.816;2023-02-23T07:04:30;-1.30;85.70
69261;DHT22;56378;52.404;20.816;2023-02-23T07:06:56;-1.20;86.00
69261;DHT22;56378;52.404;20.816;2023-02-23T07:09:22;-1.10;85.90
69261;DHT22;56378;52.404;20.816;2023-02-23T07:11:48;-0.90;85.10
69261;DHT22;56378;52.404;20.816;2023-02-23T07:14:14;-0.80;83.70
69261;DHT22;56378;52.404;20.816;2023-02-23T07:16:39;-0.60;83.40
69261;DHT22;56378;52.404;20.816;2023-02-23T07:19:06;-0.40;82.20
69261;DHT22;56378;52.404;20.816;2023-02-23T07:21:32;-0.10;81.40
69261;DHT22;56378;52.404;20.816;2023-02-23T07:23:59;0.20;80.20
69261;DHT22;56378;52.404;20.816;2023-02-23T07:26:25;0.50;78.80
69261;DHT22;56378;52.404;20.816;2023-02-23T07:28:50;0.50;78.00
69261;DHT22;56378;52.404;20.816;2023-02-23T07:31:16;0.70;77.20
69261;DHT22;56378;52.404;20.816;2023-02-23T07:33:42;0.90;76.20
69261;DHT22;56378;52.404;20.816;2023-02-23T07:36:08;1.30;75.60
69261;DHT22;56378;52.404;20.816;2023-02-23T07:38:34;1.70;73.10
69261;DHT22;56378;52.404;20.816;2023-02-23T07:41:01;2.20;70.40
69261;DHT22;56378;52.404;20.816;2023-02-23T07:43:26;2.00;70.80
69261;DHT22;56378;52.404;20.816;2023-02-23T07:45:52;2.50;69.20
69261;DHT22;56378;52.404;20.816;2023-02-23T07:48:19;2.70;67.70
69261;DHT22;56378;52.404;20.816;2023-02-23T07:50:45;3.00;66.10
69261;DHT22;56378;52.404;20.816;2023-02-23T07:53:11;3.00;66.00
69261;DHT22;56378;52.404;20.816;2023-02-23T07:55:37;3.30;64.50
69261;DHT22;56378;52.404;20.816;2023-02-23T07:58:03;3.20;64.40
69261;DHT22;56378;52.404;20.816;2023-02-23T08:00:31;2.80;65.30
69261;DHT22;56378;52.404;20.816;2023-02-23T08:02:57;3.20;65.50
69261;DHT22;56378;52.404;20.816;2023-02-23T08:05:24;3.50;64.80
69261;DHT22;56378;52.404;20.816;2023-02-23T08:07:50;3.90;63.60
69261;DHT22;56378;52.404;20.816;2023-02-23T08:10:16;4.30;62.10
69261;DHT22;56378;52.404;20.816;2023-02-23T08:12:42;4.50;61.30
69261;DHT22;56378;52.404;20.816;2023-02-23T08:15:09;4.50;60.00
69261;DHT22;56378;52.404;20.816;2023-02-23T08:17:38;4.00;61.20
69261;DHT22;56378;52.404;20.816;2023-02-23T08:20:05;3.00;64.50
69261;DHT22;56378;52.404;20.816;2023-02-23T08:22:32;3.10;65.10
69261;DHT22;56378;52.404;20.816;2023-02-23T08:24:57;3.20;64.70
69261;DHT22;56378;52.404;20.816;2023-02-23T08:27:23;3.40;64.30
69261;DHT22;56378;52.404;20.816;2023-02-23T08:29:49;3.10;63.90
69261;DHT22;56378;52.404;20.816;2023-02-23T08:32:18;2.80;65.70
69261;DHT22;56378;52.404;20.816;2023-02-23T08:34:44;2.80;66.10
69261;DHT22;56378;52.404;20.816;2023-02-23T08:37:10;3.00;65.10
69261;DHT22;56378;52.404;20.816;2023-02-23T08:39:36;3.00;64.80
69261;DHT22;56378;52.404;20.816;2023-02-23T08:42:02;2.50;66.30
69261;DHT22;56378;52.404;20.816;2023-02-23T08:44:28;2.60;66.80
69261;DHT22;56378;52.404;20.816;2023-02-23T08:46:54;2.70;66.70
69261;DHT22;56378;52.404;20.816;2023-02-23T08:49:21;2.90;65.60
69261;DHT22;56378;52.404;20.816;2023-02-23T08:51:47;2.80;65.60
69261;DHT22;56378;52.404;20.816;2023-02-23T08:54:13;2.50;66.10
69261;DHT22;56378;52.404;20.816;2023-02-23T08:56:41;2.40;66.80
69261;DHT22;56378;52.404;20.816;2023-02-23T08:59:07;2.80;66.60
69261;DHT22;56378;52.404;20.816;2023-02-23T09:01:33;2.90;65.60
69261;DHT22;56378;52.404;20.816;2023-02-23T09:03:59;2.90;65.40
69261;DHT22;56378;52.404;20.816;2023-02-23T09:06:26;2.80;66.10
69261;DHT22;56378;52.404;20.816;2023-02-23T09:08:53;3.10;64.90
69261;DHT22;56378;52.404;20.816;2023-02-23T09:11:20;3.30;64.80
69261;DHT22;56378;52.404;20.816;2023-02-23T09:13:46;3.40;64.40
69261;DHT22;56378;52.404;20.816;2023-02-23T09:16:12;3.80;63.20
69261;DHT22;56378;52.404;20.816;2023-02-23T09:18:38;3.80;62.20
69261;DHT22;56378;52.404;20.816;2023-02-23T09:21:07;3.90;61.90
69261;DHT22;56378;52.404;20.816;2023-02-23T09:23:36;3.80;63.40
69261;DHT22;56378;52.404;20.816;2023-02-23T09:26:06;3.90;62.60
69261;DHT22;56378;52.404;20.816;2023-02-23T09:28:33;4.30;63.30
69261;DHT22;56378;52.404;20.816;2023-02-23T09:31:10;4.80;60.10
69261;DHT22;56378;52.404;20.816;2023-02-23T09:33:36;4.60;60.70
69261;DHT22;56378;52.404;20.816;2023-02-23T09:36:10;4.80;60.00
69261;DHT22;56378;52.404;20.816;2023-02-23T09:38:38;5.10;59.50
69261;DHT22;56378;52.404;20.816;2023-02-23T09:46:37;4.10;62.70
69261;DHT22;56378;52.404;20.816;2023-02-23T09:49:12;4.70;61.70
69261;DHT22;56378;52.404;20.816;2023-02-23T09:51:42;4.90;60.10
69261;DHT22;56378;52.404;20.816;2023-02-23T09:54:12;4.70;60.50
69261;DHT22;56378;52.404;20.816;2023-02-23T09:56:45;5.20;60.30
69261;DHT22;56378;52.404;20.816;2023-02-23T09:59:14;5.20;58.80
69261;DHT22;56378;52.404;20.816;2023-02-23T10:04:21;4.50;60.80
69261;DHT22;56378;52.404;20.816;2023-02-23T10:06:57;4.50;61.30
69261;DHT22;56378;52.404;20.816;2023-02-23T10:22:37;5.40;60.40
69261;DHT22;56378;52.404;20.816;2023-02-23T10:25:26;6.10;58.70
69261;DHT22;56378;52.404;20.816;2023-02-23T10:27:55;6.20;56.70
69261;DHT22;56378;52.404;20.816;2023-02-23T10:30:25;6.20;57.20
69261;DHT22;56378;52.404;20.816;2023-02-23T10:33:30;6.10;57.50
69261;DHT22;56378;52.404;20.816;2023-02-23T10:36:04;6.30;56.70
69261;DHT22;56378;52.404;20.816;2023-02-23T10:38:34;6.00;56.30
69261;DHT22;56378;52.404;20.816;2023-02-23T10:41:00;6.00;58.40
69261;DHT22;56378;52.404;20.816;2023-02-23T10:43:28;6.20;58.00
69261;DHT22;56378;52.404;20.816;2023-02-23T10:45:54;6.30;56.30
69261;DHT22;56378;52.404;20.816;2023-02-23T10:48:37;6.40;56.60
69261;DHT22;56378;52.404;20.816;2023-02-23T10:51:07;6.70;56.00
69261;DHT22;56378;52.404;20.816;2023-02-23T10:53:38;6.90;55.80
69261;DHT22;56378;52.404;20.816;2023-02-23T10:56:05;6.70;55.90
69261;DHT22;56378;52.404;20.816;2023-02-23T11:01:10;6.00;57.20
69261;DHT22;56378;52.404;20.816;2023-02-23T11:03:41;5.90;58.10
69261;DHT22;56378;52.404;20.816;2023-02-23T11:06:30;6.10;57.70
69261;DHT22;56378;52.404;20.816;2023-02-23T11:08:56;6.10;56.90
69261;DHT22;56378;52.404;20.816;2023-02-23T11:11:25;6.20;58.30
69261;DHT22;56378;52.404;20.816;2023-02-23T11:13:54;6.10;57.40
69261;DHT22;56378;52.404;20.816;2023-02-23T11:18:56;5.50;58.60
69261;DHT22;56378;52.404;20.816;2023-02-23T11:21:33;5.50;59.20
69261;DHT22;56378;52.404;20.816;2023-02-23T11:24:22;5.30;59.40
69261;DHT22;56378;52.404;20.816;2023-02-23T11:26:51;5.60;59.60
69261;DHT22;56378;52.404;20.816;2023-02-23T11:31:49;5.90;58.80
69261;DHT22;56378;52.404;20.816;2023-02-23T11:34:26;5.90;58.10
69261;DHT22;56378;52.404;20.816;2023-02-23T11:36:59;5.80;58.50
69261;DHT22;56378;52.404;20.816;2023-02-23T11:39:26;5.60;59.40
69261;DHT22;56378;52.404;20.816;2023-02-23T11:42:12;5.30;59.10
69261;DHT22;56378;52.404;20.816;2023-02-23T11:44:39;5.30;59.80
69261;DHT22;56378;52.404;20.816;2023-02-23T11:47:12;5.50;60.10
69261;DHT22;56378;52.404;20.816;2023-02-23T11:49:38;5.90;58.60
69261;DHT22;56378;52.404;20.816;2023-02-23T11:52:15;5.70;59.40
69261;DHT22;56378;52.404;20.816;2023-02-23T11:54:55;5.90;58.70
69261;DHT22;56378;52.404;20.816;2023-02-23T11:57:24;5.70;58.30
69261;DHT22;56378;52.404;20.816;2023-02-23T11:59:51;5.70;58.70
69261;DHT22;56378;52.404;20.816;2023-02-23T12:02:23;5.60;59.50
69261;DHT22;56378;52.404;20.816;2023-02-23T12:07:38;5.10;60.00
69261;DHT22;56378;52.404;20.816;2023-02-23T12:15:46;4.90;61.00
69261;DHT22;56378;52.404;20.816;2023-02-23T12:18:36;5.20;60.90
69261;DHT22;56378;52.404;20.816;2023-02-23T12:26:58;6.20;58.20
69261;DHT22;56378;52.404;20.816;2023-02-23T12:29:38;6.20;57.60
69261;DHT22;56378;52.404;20.816;2023-02-23T12:32:18;6.40;57.20
69261;DHT22;56378;52.404;20.816;2023-02-23T12:35:00;6.50;57.10
69261;DHT22;56378;52.404;20.816;2023-02-23T12:40:31;7.10;55.70
69261;DHT22;56378;52.404;20.816;2023-02-23T12:43:16;6.60;56.20
69261;DHT22;56378;52.404;20.816;2023-02-23T12:51:29;6.60;55.50
69261;DHT22;56378;52.404;20.816;2023-02-23T12:53:55;6.20;57.10
69261;DHT22;56378;52.404;20.816;2023-02-23T13:02:10;6.60;56.90
69261;DHT22;56378;52.404;20.816;2023-02-23T13:07:55;7.00;55.50
69261;DHT22;56378;52.404;20.816;2023-02-23T13:18:36;6.90;54.30
69261;DHT22;56378;52.404;20.816;2023-02-23T13:21:22;7.20;54.10
69261;DHT22;56378;52.404;20.816;2023-02-23T13:24:04;7.20;54.10
69261;DHT22;56378;52.404;20.816;2023-02-23T13:31:59;6.30;56.60
69261;DHT22;56378;52.404;20.816;2023-02-23T13:34:27;6.20;56.90
69261;DHT22;56378;52.404;20.816;2023-02-23T13:36:56;6.30;57.20
69261;DHT22;56378;52.404;20.816;2023-02-23T13:47:45;6.00;57.30
69261;DHT22;56378;52.404;20.816;2023-02-23T13:50:41;5.80;58.20
69261;DHT22;56378;52.404;20.816;2023-02-23T13:53:36;5.60;59.00
69261;DHT22;56378;52.404;20.816;2023-02-23T13:58:34;5.60;59.50
69261;DHT22;56378;52.404;20.816;2023-02-23T14:01:08;5.30;59.80
69261;DHT22;56378;52.404;20.816;2023-02-23T14:04:00;5.40;60.30
69261;DHT22;56378;52.404;20.816;2023-02-23T14:06:27;5.20;60.60
69261;DHT22;56378;52.404;20.816;2023-02-23T14:11:52;5.20;60.70
69261;DHT22;56378;52.404;20.816;2023-02-23T14:17:37;5.10;60.80
69261;DHT22;56378;52.404;20.816;2023-02-23T14:20:16;5.00;61.40
69261;DHT22;56378;52.404;20.816;2023-02-23T14:36:28;4.90;62.60
69261;DHT22;56378;52.404;20.816;2023-02-23T14:38:58;4.90;62.80
69261;DHT22;56378;52.404;20.816;2023-02-23T14:41:59;4.90;62.80
69261;DHT22;56378;52.404;20.816;2023-02-23T14:44:34;5.00;62.60
69261;DHT22;56378;52.404;20.816;2023-02-23T14:47:06;4.90;62.70
69261;DHT22;56378;52.404;20.816;2023-02-23T14:49:35;4.90;62.90
69261;DHT22;56378;52.404;20.816;2023-02-23T14:52:06;4.90;63.20
69261;DHT22;56378;52.404;20.816;2023-02-23T14:54:37;4.80;63.20
69261;DHT22;56378;52.404;20.816;2023-02-23T14:57:21;4.80;63.60
69261;DHT22;56378;52.404;20.816;2023-02-23T14:59:55;4.70;63.80
69261;DHT22;56378;52.404;20.816;2023-02-23T15:02:23;4.70;63.60
69261;DHT22;56378;52.404;20.816;2023-02-23T15:04:49;4.70;64.00
69261;DHT22;56378;52.404;20.816;2023-02-23T15:07:35;4.60;64.10
69261;DHT22;56378;52.404;20.816;2023-02-23T15:10:09;4.70;64.20
69261;DHT22;56378;52.404;20.816;2023-02-23T15:12:37;4.60;64.50
69261;DHT22;56378;52.404;20.816;2023-02-23T15:15:06;4.60;64.50
69261;DHT22;56378;52.404;20.816;2023-02-23T15:17:37;4.60;64.40
69261;DHT22;56378;52.404;20.816;2023-02-23T15:20:07;4.50;64.70
69261;DHT22;56378;52.404;20.816;2023-02-23T15:22:38;4.50;65.10
69261;DHT22;56378;52.404;20.816;2023-02-23T15:25:15;4.40;65.30
69261;DHT22;56378;52.404;20.816;2023-02-23T15:27:43;4.30;65.80
69261;DHT22;56378;52.404;20.816;2023-02-23T15:32:45;4.30;66.10
69261;DHT22;56378;52.404;20.816;2023-02-23T15:35:11;4.20;66.30
69261;DHT22;56378;52.404;20.816;2023-02-23T15:37:40;4.10;66.60
69261;DHT22;56378;52.404;20.816;2023-02-23T15:40:14;4.10;67.10
69261;DHT22;56378;52.404;20.816;2023-02-23T15:42:44;4.00;67.50
69261;DHT22;56378;52.404;20.816;2023-02-23T15:47:53;3.90;67.90
69261;DHT22;56378;52.404;20.816;2023-02-23T15:50:31;3.90;68.10
69261;DHT22;56378;52.404;20.816;2023-02-23T15:53:02;3.80;68.40
69261;DHT22;56378;52.404;20.816;2023-02-23T15:55:36;3.70;68.70
69261;DHT22;56378;52.404;20.816;2023-02-23T15:58:21;3.70;69.30
69261;DHT22;56378;52.404;20.816;2023-02-23T16:00:59;3.60;69.60
69261;DHT22;56378;52.404;20.816;2023-02-23T16:03:39;3.40;70.10
69261;DHT22;56378;52.404;20.816;2023-02-23T16:11:34;3.30;71.00
69261;DHT22;56378;52.404;20.816;2023-02-23T16:14:01;3.20;71.10
69261;DHT22;56378;52.404;20.816;2023-02-23T16:16:28;3.20;71.20
69261;DHT22;56378;52.404;20.816;2023-02-23T16:18:57;3.20;71.30
69261;DHT22;56378;52.404;20.816;2023-02-23T16:21:28;3.10;71.40
69261;DHT22;56378;52.404;20.816;2023-02-23T16:23:59;3.10;71.80
69261;DHT22;56378;52.404;20.816;2023-02-23T16:26:35;3.10;71.90
69261;DHT22;56378;52.404;20.816;2023-02-23T16:29:03;3.00;72.30
69261;DHT22;56378;52.404;20.816;2023-02-23T16:31:44;2.90;72.50
69261;DHT22;56378;52.404;20.816;2023-02-23T16:34:33;2.90;72.70
69261;DHT22;56378;52.404;20.816;2023-02-23T16:37:18;2.80;73.30
69261;DHT22;56378;52.404;20.816;2023-02-23T16:39:44;2.70;73.30
69261;DHT22;56378;52.404;20.816;2023-02-23T16:44:50;2.60;73.90
69261;DHT22;56378;52.404;20.816;2023-02-23T16:49:48;2.40;75.20
69261;DHT22;56378;52.404;20.816;2023-02-23T16:52:20;2.30;75.50
69261;DHT22;56378;52.404;20.816;2023-02-23T16:54:50;2.20;76.00
69261;DHT22;56378;52.404;20.816;2023-02-23T16:57:31;2.20;76.30
69261;DHT22;56378;52.404;20.816;2023-02-23T16:59:58;2.10;76.50
69261;DHT22;56378;52.404;20.816;2023-02-23T17:02:24;2.10;76.70
69261;DHT22;56378;52.404;20.816;2023-02-23T17:04:50;2.10;77.00
69261;DHT22;56378;52.404;20.816;2023-02-23T17:07:19;2.00;77.10
69261;DHT22;56378;52.404;20.816;2023-02-23T17:09:45;2.00;77.50
69261;DHT22;56378;52.404;20.816;2023-02-23T17:12:14;1.90;77.90
69261;DHT22;56378;52.404;20.816;2023-02-23T17:14:46;1.90;78.00
69261;DHT22;56378;52.404;20.816;2023-02-23T17:17:17;1.90;78.10
69261;DHT22;56378;52.404;20.816;2023-02-23T17:19:43;1.90;78.30
69261;DHT22;56378;52.404;20.816;2023-02-23T17:22:10;1.90;78.30
69261;DHT22;56378;52.404;20.816;2023-02-23T17:24:37;1.80;78.70
69261;DHT22;56378;52.404;20.816;2023-02-23T17:27:03;1.80;78.90
69261;DHT22;56378;52.404;20.816;2023-02-23T17:29:29;1.80;78.90
69261;DHT22;56378;52.404;20.816;2023-02-23T17:31:55;1.80;79.20
69261;DHT22;56378;52.404;20.816;2023-02-23T17:34:27;1.70;79.30
69261;DHT22;56378;52.404;20.816;2023-02-23T17:36:53;1.80;79.30
69261;DHT22;56378;52.404;20.816;2023-02-23T17:39:19;1.80;79.40
69261;DHT22;56378;52.404;20.816;2023-02-23T17:41:45;1.80;79.30
69261;DHT22;56378;52.404;20.816;2023-02-23T17:44:11;1.80;79.30
69261;DHT22;56378;52.404;20.816;2023-02-23T17:46:37;1.80;79.30
69261;DHT22;56378;52.404;20.816;2023-02-23T17:49:03;1.80;79.10
69261;DHT22;56378;52.404;20.816;2023-02-23T17:51:29;1.90;79.00
69261;DHT22;56378;52.404;20.816;2023-02-23T17:53:55;1.90;79.00
69261;DHT22;56378;52.404;20.816;2023-02-23T17:56:21;1.90;79.00
69261;DHT22;56378;52.404;20.816;2023-02-23T17:58:48;2.00;78.70
69261;DHT22;56378;52.404;20.816;2023-02-23T18:01:15;2.20;78.40
69261;DHT22;56378;52.404;20.816;2023-02-23T18:03:42;2.20;78.20
69261;DHT22;56378;52.404;20.816;2023-02-23T18:06:10;2.30;78.20
69261;DHT22;56378;52.404;20.816;2023-02-23T18:08:38;2.30;78.00
69261;DHT22;56378;52.404;20.816;2023-02-23T18:11:04;2.40;78.00
69261;DHT22;56378;52.404;20.816;2023-02-23T18:13:30;2.40;77.90
69261;DHT22;56378;52.404;20.816;2023-02-23T18:16:00;2.40;78.00
69261;DHT22;56378;52.404;20.816;2023-02-23T18:18:26;2.50;78.10
69261;DHT22;56378;52.404;20.816;2023-02-23T18:20:55;2.60;78.10
69261;DHT22;56378;52.404;20.816;2023-02-23T18:23:22;2.60;78.00
69261;DHT22;56378;52.404;20.816;2023-02-23T18:25:48;2.70;78.10
69261;DHT22;56378;52.404;20.816;2023-02-23T18:28:14;2.70;78.20
69261;DHT22;56378;52.404;20.816;2023-02-23T18:30:41;2.70;78.20